createdAt,value
2022-07-31T00:00:28.178Z,21.56
2022-07-31T00:02:54.916Z,21.35
2022-07-31T00:05:22.095Z,21.42
2022-07-31T00:07:49.004Z,21.23
2022-07-31T00:10:15.658Z,21.13
2022-07-31T00:12:42.440Z,21.07
2022-07-31T00:15:12.871Z,21.07
2022-07-31T00:17:40.653Z,21.08
2022-07-31T00:20:08.932Z,21.06
2022-07-31T00:22:35.656Z,20.94
2022-07-31T00:25:02.702Z,20.98
2022-07-31T00:27:29.346Z,20.91
2022-07-31T00:29:55.906Z,20.93
2022-07-31T00:32:22.463Z,20.90
2022-07-31T00:34:49.055Z,20.86
2022-07-31T00:37:15.811Z,20.76
2022-07-31T00:39:42.405Z,20.73
2022-07-31T00:42:22.738Z,20.63
2022-07-31T00:44:50.262Z,20.65
2022-07-31T00:47:23.839Z,20.63
2022-07-31T00:49:52.270Z,20.49
2022-07-31T00:52:19.110Z,20.59
2022-07-31T00:54:45.850Z,20.56
2022-07-31T00:57:12.387Z,20.55
2022-07-31T00:59:39.038Z,20.55
2022-07-31T01:02:05.613Z,20.49
2022-07-31T01:04:32.168Z,20.48
2022-07-31T01:07:01.125Z,20.52
2022-07-31T01:09:28.205Z,20.40
2022-07-31T01:12:07.378Z,20.36
2022-07-31T01:14:41.769Z,20.21
2022-07-31T01:17:10.493Z,20.15
2022-07-31T01:19:42.805Z,20.12
2022-07-31T01:22:35.141Z,20.07
2022-07-31T01:25:07.865Z,20.08
2022-07-31T01:27:56.046Z,20.09
2022-07-31T01:30:30.491Z,20.15
2022-07-31T01:33:02.346Z,20.09
2022-07-31T01:35:35.194Z,20.17
2022-07-31T01:38:10.764Z,20.04
2022-07-31T01:40:44.925Z,19.97
2022-07-31T01:43:19.401Z,19.97
2022-07-31T01:45:49.633Z,19.97
2022-07-31T01:48:17.880Z,19.92
2022-07-31T01:50:47.692Z,19.91
2022-07-31T01:53:17.682Z,19.97
2022-07-31T01:56:02.537Z,20.01
2022-07-31T01:58:35.015Z,19.92
2022-07-31T02:01:03.916Z,19.92
2022-07-31T02:03:44.405Z,19.91
2022-07-31T02:06:17.254Z,19.90
2022-07-31T02:08:51.282Z,19.87
2022-07-31T02:11:21.520Z,19.80
2022-07-31T02:13:49.034Z,19.77
2022-07-31T02:16:18.099Z,19.70
2022-07-31T02:18:51.060Z,19.63
2022-07-31T02:21:17.820Z,19.57
2022-07-31T02:23:44.701Z,19.59
2022-07-31T02:26:11.880Z,19.60
2022-07-31T02:28:42.211Z,19.67
2022-07-31T02:31:12.924Z,19.61
2022-07-31T02:33:42.733Z,19.57
2022-07-31T02:36:11.682Z,19.47
2022-07-31T02:38:40.665Z,19.50
2022-07-31T02:41:09.750Z,19.60
2022-07-31T02:43:37.017Z,19.53
2022-07-31T02:46:04.663Z,19.49
2022-07-31T02:48:31.446Z,19.47
2022-07-31T02:50:58.593Z,19.40
2022-07-31T02:53:25.862Z,19.42
2022-07-31T02:55:53.714Z,19.46
2022-07-31T02:58:20.351Z,19.42
2022-07-31T03:00:47.168Z,19.39
2022-07-31T03:03:13.826Z,19.43
2022-07-31T03:05:40.522Z,19.49
2022-07-31T03:08:07.091Z,19.39
2022-07-31T03:10:33.828Z,19.51
2022-07-31T03:13:01.773Z,19.35
2022-07-31T03:15:30.658Z,19.33
2022-07-31T03:17:58.539Z,19.40
2022-07-31T03:20:26.946Z,19.49
2022-07-31T03:22:53.898Z,19.51
2022-07-31T03:25:21.772Z,19.53
2022-07-31T03:27:52.380Z,19.51
2022-07-31T03:30:25.772Z,19.56
2022-07-31T03:32:53.657Z,19.66
2022-07-31T03:35:20.420Z,19.64
2022-07-31T03:37:46.996Z,19.67
2022-07-31T03:40:13.953Z,19.80
2022-07-31T03:42:41.268Z,19.66
2022-07-31T03:45:09.588Z,19.77
2022-07-31T03:47:36.553Z,19.74
2022-07-31T03:50:03.821Z,19.75
2022-07-31T03:52:31.785Z,19.80
2022-07-31T03:54:58.655Z,19.81
2022-07-31T03:57:29.087Z,19.66
2022-07-31T04:00:00.777Z,19.75
2022-07-31T04:02:31.797Z,19.85
2022-07-31T04:04:59.271Z,19.78
2022-07-31T04:07:26.263Z,19.71
2022-07-31T04:09:53.027Z,19.73
2022-07-31T04:12:19.602Z,19.66
2022-07-31T04:14:46.480Z,19.74
2022-07-31T04:17:14.142Z,19.63
2022-07-31T04:19:40.683Z,19.70
2022-07-31T04:22:07.777Z,19.71
2022-07-31T04:24:34.842Z,19.47
2022-07-31T04:27:01.561Z,19.45
2022-07-31T04:29:29.599Z,19.49
2022-07-31T04:31:56.733Z,19.46
2022-07-31T04:34:23.309Z,19.61
2022-07-31T04:36:49.988Z,19.54
2022-07-31T04:39:16.872Z,19.47
2022-07-31T04:41:44.311Z,19.39
2022-07-31T04:44:11.301Z,19.46
2022-07-31T04:46:38.017Z,19.46
2022-07-31T04:49:04.731Z,19.57
2022-07-31T04:51:31.506Z,19.54
2022-07-31T04:53:58.059Z,19.54
2022-07-31T04:56:33.779Z,19.68
2022-07-31T04:59:02.187Z,19.64
2022-07-31T05:01:29.194Z,19.88
2022-07-31T05:03:55.908Z,19.82
2022-07-31T05:06:22.503Z,19.90
2022-07-31T05:08:49.109Z,19.82
2022-07-31T05:11:24.657Z,19.85
2022-07-31T05:13:56.242Z,19.88
2022-07-31T05:16:23.927Z,19.77
2022-07-31T05:18:51.824Z,19.97
2022-07-31T05:21:19.164Z,19.92
2022-07-31T05:23:47.357Z,20.02
2022-07-31T05:26:15.506Z,20.11
2022-07-31T05:28:42.246Z,20.07
2022-07-31T05:31:10.405Z,20.24
2022-07-31T05:33:37.540Z,20.52
2022-07-31T05:36:05.061Z,20.52
2022-07-31T05:38:31.833Z,20.77
2022-07-31T05:40:58.397Z,20.69
2022-07-31T05:43:25.018Z,21.01
2022-07-31T05:45:51.680Z,21.20
2022-07-31T05:48:18.508Z,21.20
2022-07-31T05:50:47.291Z,21.21
2022-07-31T05:53:17.374Z,21.42
2022-07-31T05:55:45.920Z,21.48
2022-07-31T05:58:16.644Z,21.44
2022-07-31T06:00:45.058Z,21.68
2022-07-31T06:03:14.493Z,21.65
2022-07-31T06:05:41.257Z,21.79
2022-07-31T06:08:09.701Z,21.75
2022-07-31T06:10:37.532Z,21.89
2022-07-31T06:13:05.208Z,21.72
2022-07-31T06:15:36.060Z,21.69
2022-07-31T06:18:03.780Z,21.74
2022-07-31T06:20:30.643Z,21.78
2022-07-31T06:22:57.383Z,21.92
2022-07-31T06:25:23.937Z,21.79
2022-07-31T06:27:59.182Z,21.93
2022-07-31T06:30:26.735Z,22.09
2022-07-31T06:32:53.388Z,22.14
2022-07-31T06:35:19.913Z,21.95
2022-07-31T06:37:46.494Z,22.08
2022-07-31T06:40:13.473Z,22.04
2022-07-31T06:42:40.360Z,22.29
2022-07-31T06:45:07.545Z,22.37
2022-07-31T06:47:34.162Z,22.26
2022-07-31T06:50:00.669Z,22.12
2022-07-31T06:52:27.242Z,22.32
2022-07-31T06:54:53.975Z,22.30
2022-07-31T06:57:20.518Z,22.00
2022-07-31T06:59:47.056Z,22.04
2022-07-31T07:02:13.628Z,22.06
2022-07-31T07:05:05.093Z,22.03
2022-07-31T07:07:31.909Z,22.09
2022-07-31T07:09:59.088Z,22.12
2022-07-31T07:12:26.896Z,21.96
2022-07-31T07:14:55.105Z,22.13
2022-07-31T07:17:24.788Z,22.10
2022-07-31T07:19:54.963Z,22.22
2022-07-31T07:22:31.366Z,22.20
2022-07-31T07:24:59.806Z,22.33
2022-07-31T07:27:32.301Z,22.27
2022-07-31T07:29:59.573Z,22.33
2022-07-31T07:32:26.120Z,22.23
2022-07-31T07:34:59.522Z,22.04
2022-07-31T07:37:27.360Z,21.88
2022-07-31T07:39:53.926Z,21.86
2022-07-31T07:42:20.552Z,21.90
2022-07-31T07:44:47.032Z,22.06
2022-07-31T07:47:13.504Z,21.85
2022-07-31T07:49:40.097Z,21.83
2022-07-31T07:52:06.588Z,21.99
2022-07-31T07:54:33.108Z,21.93
2022-07-31T07:56:59.920Z,21.97
2022-07-31T07:59:26.516Z,22.02
2022-07-31T08:01:52.983Z,22.03
2022-07-31T08:04:19.543Z,22.26
2022-07-31T08:06:46.064Z,22.47
2022-07-31T08:09:12.584Z,22.41
2022-07-31T08:11:39.120Z,22.54
2022-07-31T08:14:05.609Z,22.85
2022-07-31T08:16:32.701Z,23.18
2022-07-31T08:18:59.229Z,23.83
2022-07-31T08:21:25.745Z,24.38
2022-07-31T08:23:52.852Z,24.25
2022-07-31T08:26:19.361Z,24.00
2022-07-31T08:28:50.367Z,24.20
2022-07-31T08:31:18.870Z,24.07
2022-07-31T08:33:45.401Z,23.60
2022-07-31T08:36:11.904Z,23.33
2022-07-31T08:38:39.468Z,23.39
2022-07-31T08:41:06.087Z,23.18
2022-07-31T08:44:02.510Z,23.21
2022-07-31T08:46:23.454Z,23.53
2022-07-31T08:48:53.424Z,23.52
2022-07-31T08:51:23.876Z,23.47
2022-07-31T08:53:54.213Z,24.01
2022-07-31T08:56:21.165Z,23.47
2022-07-31T08:58:47.803Z,23.63
2022-07-31T09:01:15.249Z,23.39
2022-07-31T09:03:42.303Z,23.70
2022-07-31T09:06:08.891Z,23.86
2022-07-31T09:08:37.516Z,23.90
2022-07-31T09:11:08.507Z,24.17
2022-07-31T09:13:35.538Z,24.53
2022-07-31T09:16:03.194Z,24.47
2022-07-31T09:18:30.504Z,24.22
2022-07-31T09:21:05.878Z,23.91
2022-07-31T09:23:33.344Z,24.14
2022-07-31T09:26:01.868Z,24.02
2022-07-31T09:28:36.065Z,24.55
2022-07-31T09:31:04.255Z,24.78
2022-07-31T09:33:31.620Z,25.04
2022-07-31T09:35:58.748Z,25.38
2022-07-31T09:38:38.457Z,25.04
2022-07-31T09:41:56.565Z,25.24
2022-07-31T09:44:10.420Z,25.17
2022-07-31T09:46:46.293Z,25.19
2022-07-31T09:49:12.997Z,25.94
2022-07-31T09:51:41.509Z,25.60
2022-07-31T09:54:08.675Z,25.16
2022-07-31T09:56:36.000Z,25.12
2022-07-31T09:59:03.194Z,25.61
2022-07-31T10:01:31.014Z,25.48
2022-07-31T10:04:00.440Z,24.99
2022-07-31T10:06:30.909Z,25.16
2022-07-31T10:08:58.913Z,25.03
2022-07-31T10:11:26.492Z,26.23
2022-07-31T10:13:58.855Z,26.08
2022-07-31T10:16:27.396Z,25.48
2022-07-31T10:19:01.467Z,25.47
2022-07-31T10:21:36.112Z,25.51
2022-07-31T10:24:04.427Z,25.57
2022-07-31T10:26:57.800Z,25.88
2022-07-31T10:29:17.983Z,25.82
2022-07-31T10:31:46.023Z,26.11
2022-07-31T10:34:15.649Z,25.85
2022-07-31T10:36:45.329Z,26.11
2022-07-31T10:39:19.670Z,26.40
2022-07-31T10:41:56.235Z,26.52
2022-07-31T10:44:38.633Z,26.28
2022-07-31T10:47:16.310Z,26.31
2022-07-31T10:49:45.398Z,26.49
2022-07-31T10:52:12.333Z,26.22
2022-07-31T10:54:47.055Z,27.48
2022-07-31T10:57:24.937Z,28.12
2022-07-31T10:59:51.779Z,28.00
2022-07-31T11:02:37.458Z,27.49
2022-07-31T11:05:09.117Z,27.61
2022-07-31T11:07:35.944Z,27.43
2022-07-31T11:10:12.767Z,27.35
2022-07-31T11:12:40.087Z,28.07
2022-07-31T11:15:21.744Z,28.14
2022-07-31T11:18:21.040Z,27.66
2022-07-31T11:20:35.467Z,27.24
2022-07-31T11:23:05.491Z,27.04
2022-07-31T11:25:36.023Z,26.87
2022-07-31T11:28:24.609Z,26.73
2022-07-31T11:30:53.428Z,26.43
2022-07-31T11:33:43.088Z,26.88
2022-07-31T11:36:13.860Z,26.86
2022-07-31T11:38:44.688Z,26.52
2022-07-31T11:41:14.961Z,25.95
2022-07-31T11:43:46.483Z,26.50
2022-07-31T11:46:18.899Z,26.71
2022-07-31T11:48:45.835Z,26.59
2022-07-31T11:51:18.387Z,26.54
2022-07-31T11:53:45.383Z,26.88
2022-07-31T11:56:12.717Z,26.39
2022-07-31T11:58:48.110Z,26.37
2022-07-31T12:01:14.966Z,26.80
2022-07-31T12:03:42.565Z,26.81
2022-07-31T12:06:10.520Z,27.79
2022-07-31T12:08:37.749Z,28.00
2022-07-31T12:11:06.548Z,28.34
2022-07-31T12:13:33.486Z,29.14
2022-07-31T12:16:11.192Z,29.02
2022-07-31T12:18:59.315Z,28.78
2022-07-31T12:21:37.854Z,28.77
2022-07-31T12:24:14.689Z,28.36
2022-07-31T12:26:49.015Z,27.79
2022-07-31T12:29:15.573Z,27.49
2022-07-31T12:31:53.849Z,27.22
2022-07-31T12:34:30.548Z,27.08
2022-07-31T12:37:04.408Z,27.18
2022-07-31T12:39:54.221Z,27.11
2022-07-31T12:42:30.462Z,26.74
2022-07-31T12:45:19.708Z,26.70
2022-07-31T12:47:52.250Z,27.01
2022-07-31T12:50:23.647Z,26.95
2022-07-31T12:52:50.589Z,27.24
2022-07-31T12:55:17.831Z,27.20
2022-07-31T12:57:51.577Z,27.49
2022-07-31T13:00:22.684Z,27.35
2022-07-31T13:02:50.359Z,27.65
2022-07-31T13:05:17.090Z,27.28
2022-07-31T13:07:44.034Z,27.35
2022-07-31T13:10:15.083Z,27.59
2022-07-31T13:12:52.111Z,27.58
2022-07-31T13:15:21.009Z,27.35
2022-07-31T13:17:50.498Z,27.25
2022-07-31T13:20:17.681Z,27.11
2022-07-31T13:22:44.185Z,27.18
2022-07-31T13:25:10.820Z,26.87
2022-07-31T13:27:37.470Z,27.30
2022-07-31T13:30:04.684Z,27.01
2022-07-31T13:32:31.886Z,27.02
2022-07-31T13:35:26.742Z,26.94
2022-07-31T13:37:46.534Z,27.11
2022-07-31T13:40:13.823Z,27.08
2022-07-31T13:42:40.462Z,27.22
2022-07-31T13:45:08.585Z,27.10
2022-07-31T13:47:51.695Z,27.76
2022-07-31T13:50:19.297Z,27.39
2022-07-31T13:52:45.777Z,27.25
2022-07-31T13:55:12.345Z,27.14
2022-07-31T13:57:38.885Z,27.14
2022-07-31T14:00:06.415Z,27.21
2022-07-31T14:02:33.023Z,27.32
2022-07-31T14:04:59.675Z,27.05
2022-07-31T14:07:48.202Z,26.80
2022-07-31T14:10:17.155Z,26.83
2022-07-31T14:12:46.603Z,26.52
2022-07-31T14:15:13.259Z,26.53
2022-07-31T14:17:39.861Z,26.53
2022-07-31T14:20:06.878Z,26.53
2022-07-31T14:22:33.661Z,26.71
2022-07-31T14:25:00.485Z,26.76
2022-07-31T14:27:30.245Z,26.77
2022-07-31T14:29:56.736Z,26.62
2022-07-31T14:32:23.247Z,26.60
2022-07-31T14:34:50.550Z,26.91
2022-07-31T14:37:19.729Z,27.10
2022-07-31T14:39:46.242Z,27.08
2022-07-31T14:42:13.049Z,27.00
2022-07-31T14:44:42.301Z,27.04
2022-07-31T14:47:11.046Z,27.08
2022-07-31T14:50:07.017Z,27.22
2022-07-31T14:52:25.131Z,27.28
2022-07-31T14:54:55.613Z,27.48
2022-07-31T14:57:22.365Z,27.66
2022-07-31T14:59:52.543Z,27.82
2022-07-31T15:02:22.480Z,28.01
2022-07-31T15:04:50.308Z,28.06
2022-07-31T15:07:39.422Z,28.00
2022-07-31T15:10:11.095Z,27.85
2022-07-31T15:12:38.357Z,27.73
2022-07-31T15:15:08.353Z,27.76
2022-07-31T15:17:34.953Z,27.93
2022-07-31T15:20:01.652Z,27.90
2022-07-31T15:22:28.258Z,27.89
2022-07-31T15:24:55.061Z,27.72
2022-07-31T15:27:22.214Z,27.68
2022-07-31T15:30:05.704Z,27.94
2022-07-31T15:32:37.956Z,28.82
2022-07-31T15:35:06.757Z,28.19
2022-07-31T15:37:35.671Z,28.14
2022-07-31T15:40:07.174Z,27.86
2022-07-31T15:42:40.482Z,27.55
2022-07-31T15:45:09.635Z,27.59
2022-07-31T15:47:36.735Z,27.51
2022-07-31T15:50:05.046Z,27.46
2022-07-31T15:52:31.632Z,27.75
2022-07-31T15:54:58.429Z,27.76
2022-07-31T15:57:25.204Z,27.65
2022-07-31T15:59:55.888Z,27.58
2022-07-31T16:02:23.741Z,27.68
2022-07-31T16:04:55.651Z,27.51
2022-07-31T16:08:32.586Z,27.68
2022-07-31T16:10:18.016Z,27.76
2022-07-31T16:12:48.158Z,28.06
2022-07-31T16:15:16.427Z,28.40
2022-07-31T16:17:44.016Z,28.65
2022-07-31T16:20:12.893Z,28.64
2022-07-31T16:22:51.257Z,27.79
2022-07-31T16:25:22.029Z,27.80
2022-07-31T16:27:48.865Z,27.61
2022-07-31T16:30:15.554Z,27.49
2022-07-31T16:32:42.659Z,27.46
2022-07-31T16:35:10.599Z,27.17
2022-07-31T16:37:52.287Z,27.10
2022-07-31T16:40:30.417Z,27.17
2022-07-31T16:43:49.730Z,27.08
2022-07-31T16:45:50.595Z,26.83
2022-07-31T16:48:17.682Z,26.86
2022-07-31T16:50:44.179Z,26.84
2022-07-31T16:53:13.503Z,26.70
2022-07-31T16:56:00.793Z,26.66
2022-07-31T16:58:28.299Z,26.67
2022-07-31T17:00:54.991Z,26.63
2022-07-31T17:04:00.964Z,26.57
2022-07-31T17:06:10.450Z,26.70
2022-07-31T17:08:38.288Z,26.47
2022-07-31T17:11:05.322Z,26.42
2022-07-31T17:13:31.912Z,26.43
2022-07-31T17:15:58.446Z,26.35
2022-07-31T17:18:25.492Z,26.46
2022-07-31T17:20:55.805Z,26.39
2022-07-31T17:23:43.122Z,26.47
2022-07-31T17:26:21.592Z,26.47
2022-07-31T17:28:50.262Z,26.60
2022-07-31T17:31:17.767Z,26.57
2022-07-31T17:33:58.911Z,26.43
2022-07-31T17:36:26.677Z,26.63
2022-07-31T17:38:53.309Z,26.44
2022-07-31T17:41:25.579Z,26.32
2022-07-31T17:43:54.294Z,26.43
2022-07-31T17:46:28.149Z,26.33
2022-07-31T17:49:01.497Z,26.21
2022-07-31T17:51:28.037Z,26.26
2022-07-31T17:53:59.613Z,26.29
2022-07-31T17:56:26.780Z,26.40
2022-07-31T17:58:53.943Z,26.21
